createdAt,value
2022-08-17T00:00:33.179Z,20.13
2022-08-17T00:03:05.242Z,20.16
2022-08-17T00:05:37.647Z,20.04
2022-08-17T00:08:06.281Z,19.88
2022-08-17T00:10:34.075Z,19.87
2022-08-17T00:13:07.076Z,19.84
2022-08-17T00:15:34.981Z,19.86
2022-08-17T00:18:03.159Z,19.83
2022-08-17T00:20:34.726Z,19.95
2022-08-17T00:23:06.428Z,19.87
2022-08-17T00:25:34.248Z,19.88
2022-08-17T00:28:02.079Z,19.83
2022-08-17T00:30:30.317Z,19.81
2022-08-17T00:33:20.797Z,19.62
2022-08-17T00:35:50.611Z,19.65
2022-08-17T00:38:20.738Z,19.64
2022-08-17T00:40:51.953Z,19.68
2022-08-17T00:43:31.575Z,19.72
2022-08-17T00:46:00.774Z,19.79
2022-08-17T00:48:30.779Z,19.91
2022-08-17T00:51:04.355Z,20.03
2022-08-17T00:53:35.621Z,20.02
2022-08-17T00:56:07.149Z,19.88
2022-08-17T00:58:37.784Z,19.77
2022-08-17T01:01:10.249Z,19.76
2022-08-17T01:03:39.264Z,19.80
2022-08-17T01:06:09.053Z,19.94
2022-08-17T01:08:40.549Z,19.93
2022-08-17T01:11:09.176Z,19.91
2022-08-17T01:13:41.706Z,19.82
2022-08-17T01:16:17.101Z,19.85
2022-08-17T01:18:46.685Z,19.95
2022-08-17T01:21:21.266Z,19.93
2022-08-17T01:23:50.503Z,19.80
2022-08-17T01:26:19.320Z,19.65
2022-08-17T01:28:54.029Z,19.70
2022-08-17T01:31:24.981Z,19.78
2022-08-17T01:33:52.837Z,19.63
2022-08-17T01:36:20.992Z,19.58
2022-08-17T01:38:50.311Z,19.57
2022-08-17T01:41:19.600Z,19.56
2022-08-17T01:43:53.330Z,19.60
2022-08-17T01:46:25.666Z,19.55
2022-08-17T01:48:54.517Z,19.56
2022-08-17T01:51:23.305Z,19.53
2022-08-17T01:53:59.293Z,19.49
2022-08-17T01:56:29.497Z,19.49
2022-08-17T01:58:57.568Z,19.43
2022-08-17T02:01:29.762Z,19.34
2022-08-17T02:04:01.165Z,19.18
2022-08-17T02:06:31.522Z,19.13
2022-08-17T02:09:16.887Z,19.13
2022-08-17T02:11:46.261Z,19.00
2022-08-17T02:14:14.705Z,18.96
2022-08-17T02:16:43.136Z,18.99
2022-08-17T02:19:13.685Z,19.00
2022-08-17T02:21:43.165Z,19.00
2022-08-17T02:24:16.666Z,18.76
2022-08-17T02:26:46.254Z,18.95
2022-08-17T02:29:15.798Z,18.79
2022-08-17T02:31:44.377Z,18.91
2022-08-17T02:34:12.534Z,18.94
2022-08-17T02:36:40.286Z,18.89
2022-08-17T02:39:11.660Z,18.50
2022-08-17T02:41:41.262Z,18.58
2022-08-17T02:44:09.226Z,18.68
2022-08-17T02:46:36.983Z,18.73
2022-08-17T02:49:06.168Z,18.83
2022-08-17T02:51:35.259Z,18.74
2022-08-17T02:54:41.042Z,18.65
2022-08-17T02:56:52.802Z,18.47
2022-08-17T02:59:20.575Z,18.39
2022-08-17T03:01:48.419Z,18.33
2022-08-17T03:04:16.282Z,18.43
2022-08-17T03:06:44.035Z,18.42
2022-08-17T03:09:11.794Z,18.30
2022-08-17T03:11:39.546Z,18.35
2022-08-17T03:14:08.683Z,18.39
2022-08-17T03:16:36.431Z,18.43
2022-08-17T03:19:04.213Z,18.48
2022-08-17T03:21:31.989Z,18.66
2022-08-17T03:23:59.749Z,18.72
2022-08-17T03:26:29.908Z,18.76
2022-08-17T03:28:57.709Z,18.75
2022-08-17T03:31:26.810Z,18.71
2022-08-17T03:33:54.566Z,18.64
2022-08-17T03:36:22.345Z,18.60
2022-08-17T03:38:50.098Z,18.46
2022-08-17T03:41:18.907Z,18.39
2022-08-17T03:43:46.672Z,18.45
2022-08-17T03:46:35.037Z,18.47
2022-08-17T03:49:23.402Z,18.58
2022-08-17T03:52:08.867Z,18.62
2022-08-17T03:54:54.302Z,18.63
2022-08-17T03:57:22.102Z,18.57
2022-08-17T03:59:49.921Z,18.56
2022-08-17T04:02:22.171Z,18.61
2022-08-17T04:04:52.255Z,18.58
2022-08-17T04:07:21.567Z,18.51
2022-08-17T04:09:49.803Z,18.60
2022-08-17T04:12:19.646Z,18.65
2022-08-17T04:14:53.401Z,18.68
2022-08-17T04:17:24.144Z,18.57
2022-08-17T04:19:54.064Z,18.47
2022-08-17T04:22:33.343Z,18.53
2022-08-17T04:25:08.848Z,18.56
2022-08-17T04:27:36.715Z,18.58
2022-08-17T04:30:07.929Z,18.70
2022-08-17T04:33:10.465Z,18.79
2022-08-17T04:35:41.945Z,18.76
2022-08-17T04:38:12.335Z,18.71
2022-08-17T04:40:57.755Z,18.77
2022-08-17T04:43:27.560Z,18.80
2022-08-17T04:45:58.141Z,18.86
2022-08-17T04:48:35.500Z,18.95
2022-08-17T04:51:09.630Z,18.99
2022-08-17T04:53:38.468Z,18.83
2022-08-17T04:56:06.823Z,18.68
2022-08-17T04:58:34.628Z,18.55
2022-08-17T05:01:02.542Z,18.57
2022-08-17T05:03:30.578Z,18.49
2022-08-17T05:05:58.340Z,18.62
2022-08-17T05:08:27.493Z,18.63
2022-08-17T05:10:55.582Z,18.58
2022-08-17T05:13:25.705Z,18.63
2022-08-17T05:15:56.701Z,18.64
2022-08-17T05:18:24.963Z,18.74
2022-08-17T05:20:53.208Z,18.79
2022-08-17T05:23:23.963Z,18.82
2022-08-17T05:25:56.302Z,18.95
2022-08-17T05:28:27.421Z,18.96
2022-08-17T05:30:56.925Z,18.98
2022-08-17T05:33:27.370Z,19.03
2022-08-17T05:35:57.488Z,19.23
2022-08-17T05:38:26.799Z,19.24
2022-08-17T05:40:57.198Z,19.26
2022-08-17T05:43:26.615Z,19.25
2022-08-17T05:46:02.551Z,19.12
2022-08-17T05:48:39.086Z,19.16
2022-08-17T05:51:28.798Z,19.06
2022-08-17T05:54:08.348Z,19.14
2022-08-17T05:56:57.316Z,18.86
2022-08-17T05:59:31.305Z,19.12
2022-08-17T06:02:06.723Z,19.18
2022-08-17T06:04:47.739Z,19.21
2022-08-17T06:07:21.335Z,19.36
2022-08-17T06:09:58.089Z,19.42
2022-08-17T06:12:38.374Z,19.47
2022-08-17T06:15:23.713Z,19.54
2022-08-17T06:17:56.969Z,19.56
2022-08-17T06:20:26.284Z,19.43
2022-08-17T06:23:03.775Z,19.06
2022-08-17T06:25:37.856Z,19.01
2022-08-17T06:28:14.717Z,18.93
2022-08-17T06:31:00.930Z,18.87
2022-08-17T06:33:34.439Z,19.17
2022-08-17T06:36:15.773Z,19.30
2022-08-17T06:38:54.775Z,19.07
2022-08-17T06:41:31.441Z,19.00
2022-08-17T06:44:43.210Z,19.32
2022-08-17T06:47:10.469Z,19.60
2022-08-17T06:49:44.989Z,19.63
2022-08-17T06:52:46.465Z,19.73
2022-08-17T06:55:19.049Z,19.68
2022-08-17T06:57:56.526Z,20.36
2022-08-17T07:00:28.900Z,20.76
2022-08-17T07:03:02.337Z,20.62
2022-08-17T07:05:36.339Z,20.51
2022-08-17T07:08:14.555Z,20.29
2022-08-17T07:10:45.609Z,20.06
2022-08-17T07:13:25.419Z,20.37
2022-08-17T07:16:03.272Z,20.76
2022-08-17T07:18:33.167Z,20.66
2022-08-17T07:21:17.584Z,20.53
2022-08-17T07:24:01.818Z,20.20
2022-08-17T07:26:29.748Z,20.19
2022-08-17T07:28:58.212Z,20.61
2022-08-17T07:31:31.531Z,20.40
2022-08-17T07:34:04.034Z,20.69
2022-08-17T07:36:33.880Z,20.93
2022-08-17T07:39:03.362Z,21.26
2022-08-17T07:41:57.322Z,20.79
2022-08-17T07:44:27.718Z,20.61
2022-08-17T07:47:15.521Z,20.61
2022-08-17T07:49:46.802Z,20.59
2022-08-17T07:52:48.518Z,20.74
2022-08-17T07:55:29.337Z,20.51
2022-08-17T07:57:59.332Z,20.42
2022-08-17T08:00:32.502Z,20.54
2022-08-17T08:03:15.572Z,20.69
2022-08-17T08:05:53.020Z,20.64
2022-08-17T08:08:28.132Z,20.00
2022-08-17T08:11:02.753Z,20.04
2022-08-17T08:13:32.238Z,20.22
2022-08-17T08:16:19.866Z,20.30
2022-08-17T08:18:54.169Z,20.34
2022-08-17T08:21:33.017Z,20.51
2022-08-17T08:24:10.863Z,20.47
2022-08-17T08:26:46.364Z,20.43
2022-08-17T08:29:28.224Z,20.11
2022-08-17T08:32:09.127Z,20.18
2022-08-17T08:35:02.218Z,19.98
2022-08-17T08:37:43.007Z,20.10
2022-08-17T08:40:28.262Z,20.07
2022-08-17T08:43:09.274Z,20.27
2022-08-17T08:45:46.960Z,20.28
2022-08-17T08:48:56.722Z,20.34
2022-08-17T08:51:27.637Z,20.14
2022-08-17T08:54:03.272Z,20.00
2022-08-17T08:56:38.301Z,20.02
2022-08-17T08:59:18.134Z,20.19
2022-08-17T09:01:55.678Z,20.12
2022-08-17T09:05:10.770Z,20.25
2022-08-17T09:07:39.928Z,20.41
2022-08-17T09:10:16.251Z,20.55
2022-08-17T09:12:54.254Z,20.30
2022-08-17T09:15:27.613Z,20.33
2022-08-17T09:18:30.425Z,20.41
2022-08-17T09:20:50.654Z,20.28
2022-08-17T09:23:33.474Z,20.15
2022-08-17T09:26:07.868Z,20.37
2022-08-17T09:28:38.771Z,20.47
2022-08-17T09:31:09.966Z,20.50
2022-08-17T09:33:43.511Z,20.49
2022-08-17T09:36:15.886Z,20.52
2022-08-17T09:38:58.044Z,20.48
2022-08-17T09:41:33.338Z,20.35
2022-08-17T09:44:09.599Z,20.61
2022-08-17T09:46:55.135Z,20.51
2022-08-17T09:49:31.450Z,20.83
2022-08-17T09:52:04.032Z,20.93
2022-08-17T09:54:39.596Z,21.10
2022-08-17T09:57:31.527Z,21.20
2022-08-17T10:00:18.876Z,21.27
2022-08-17T10:03:17.134Z,21.32
2022-08-17T10:05:56.958Z,21.30
2022-08-17T10:08:36.073Z,21.29
2022-08-17T10:11:50.588Z,21.33
2022-08-17T10:14:37.694Z,21.51
2022-08-17T10:17:23.678Z,21.57
2022-08-17T10:19:58.843Z,21.69
2022-08-17T10:22:53.067Z,21.71
2022-08-17T10:25:55.699Z,21.42
2022-08-17T10:28:30.954Z,21.82
2022-08-17T10:31:33.736Z,21.98
2022-08-17T10:34:08.340Z,22.12
2022-08-17T10:36:46.406Z,21.91
2022-08-17T10:39:28.686Z,21.43
2022-08-17T10:42:00.540Z,22.20
2022-08-17T10:44:42.561Z,22.27
2022-08-17T10:47:15.335Z,22.06
2022-08-17T10:49:47.688Z,22.18
2022-08-17T10:52:50.034Z,22.69
2022-08-17T10:55:20.315Z,23.09
2022-08-17T10:57:50.820Z,23.25
2022-08-17T11:01:02.254Z,22.57
2022-08-17T11:03:32.918Z,23.06
2022-08-17T11:06:15.172Z,22.66
2022-08-17T11:09:07.770Z,22.59
2022-08-17T11:11:50.931Z,22.37
2022-08-17T11:14:44.062Z,22.60
2022-08-17T11:17:29.203Z,22.92
2022-08-17T11:20:19.429Z,23.21
2022-08-17T11:23:18.580Z,22.70
2022-08-17T11:25:51.952Z,22.80
2022-08-17T11:28:23.572Z,23.10
2022-08-17T11:30:55.053Z,23.23
2022-08-17T11:33:56.039Z,23.32
2022-08-17T11:36:48.870Z,22.92
2022-08-17T11:39:38.690Z,22.53
2022-08-17T11:42:19.899Z,22.98
2022-08-17T11:44:54.305Z,23.32
2022-08-17T11:48:15.909Z,23.59
2022-08-17T11:51:05.327Z,23.68
2022-08-17T11:56:44.402Z,23.55
2022-08-17T12:00:00.995Z,23.97
2022-08-17T12:02:48.100Z,23.44
2022-08-17T12:05:32.273Z,24.10
2022-08-17T12:08:11.778Z,24.07
2022-08-17T12:10:51.367Z,24.28
2022-08-17T12:13:21.865Z,24.11
2022-08-17T12:15:53.387Z,24.48
2022-08-17T12:18:24.461Z,24.55
2022-08-17T12:21:12.056Z,24.59
2022-08-17T12:23:44.135Z,24.67
2022-08-17T12:26:19.403Z,24.80
2022-08-17T12:28:53.764Z,24.86
2022-08-17T12:31:25.711Z,24.85
2022-08-17T12:33:54.069Z,24.72
2022-08-17T12:36:25.756Z,24.93
2022-08-17T12:39:13.756Z,24.97
2022-08-17T12:41:44.811Z,25.23
2022-08-17T12:44:18.132Z,25.60
2022-08-17T12:46:51.215Z,25.47
2022-08-17T12:49:29.579Z,25.75
2022-08-17T12:52:09.325Z,26.02
2022-08-17T12:54:57.171Z,25.98
2022-08-17T12:57:27.908Z,26.18
2022-08-17T13:00:01.421Z,26.33
2022-08-17T13:02:33.516Z,26.67
2022-08-17T13:05:02.587Z,26.88
2022-08-17T13:07:34.308Z,26.80
2022-08-17T13:10:02.343Z,26.60
2022-08-17T13:12:33.532Z,26.03
2022-08-17T13:15:02.870Z,26.15
2022-08-17T13:17:34.620Z,25.58
2022-08-17T13:20:04.823Z,25.86
2022-08-17T13:22:33.444Z,26.82
2022-08-17T13:25:07.031Z,26.59
2022-08-17T13:27:34.977Z,26.47
2022-08-17T13:30:09.513Z,27.10
2022-08-17T13:32:44.137Z,26.10
2022-08-17T13:35:40.526Z,26.38
2022-08-17T13:38:12.723Z,26.45
2022-08-17T13:40:44.704Z,26.21
2022-08-17T13:43:13.260Z,25.61
2022-08-17T13:45:53.342Z,26.25
2022-08-17T13:48:28.198Z,26.40
2022-08-17T13:51:13.624Z,26.60
2022-08-17T13:53:54.975Z,26.18
2022-08-17T13:56:38.762Z,26.46
2022-08-17T13:59:11.010Z,26.38
2022-08-17T14:01:42.088Z,26.57
2022-08-17T14:04:13.236Z,27.37
2022-08-17T14:06:54.036Z,26.71
2022-08-17T14:09:25.187Z,27.26
2022-08-17T14:11:55.405Z,26.82
2022-08-17T14:14:24.112Z,27.25
2022-08-17T14:16:54.278Z,27.05
2022-08-17T14:19:22.965Z,27.34
2022-08-17T14:21:51.671Z,26.81
2022-08-17T14:24:24.387Z,26.99
2022-08-17T14:26:53.410Z,26.86
2022-08-17T14:29:22.029Z,26.58
2022-08-17T14:31:54.193Z,26.93
2022-08-17T14:34:24.908Z,27.03
2022-08-17T14:36:53.330Z,27.19
2022-08-17T14:39:21.642Z,26.83
2022-08-17T14:41:49.929Z,27.12
2022-08-17T14:44:17.986Z,26.85
2022-08-17T14:46:47.912Z,26.97
2022-08-17T14:49:16.098Z,26.75
2022-08-17T14:51:45.248Z,26.79
2022-08-17T14:54:33.053Z,26.30
2022-08-17T14:57:22.205Z,26.84
2022-08-17T14:59:53.189Z,27.49
2022-08-17T15:02:29.672Z,26.80
2022-08-17T15:05:00.482Z,26.33
2022-08-17T15:07:30.766Z,26.48
2022-08-17T15:10:00.604Z,27.50
2022-08-17T15:12:33.220Z,27.91
2022-08-17T15:15:01.857Z,27.11
2022-08-17T15:17:44.961Z,26.56
2022-08-17T15:20:16.050Z,26.27
2022-08-17T15:22:46.694Z,26.05
2022-08-17T15:25:14.848Z,25.80
2022-08-17T15:27:42.998Z,25.83
2022-08-17T15:30:12.090Z,25.87
2022-08-17T15:32:50.624Z,25.61
2022-08-17T15:35:28.086Z,25.69
2022-08-17T15:38:04.669Z,25.72
2022-08-17T15:40:36.978Z,25.70
2022-08-17T15:43:11.317Z,25.63
2022-08-17T15:45:39.989Z,25.54
2022-08-17T15:48:07.988Z,25.58
2022-08-17T15:50:36.199Z,25.67
2022-08-17T15:53:05.802Z,25.35
2022-08-17T15:55:34.110Z,24.31
2022-08-17T15:58:02.466Z,23.63
2022-08-17T16:00:30.694Z,23.95
2022-08-17T16:03:47.028Z,23.99
2022-08-17T16:05:51.070Z,24.03
2022-08-17T16:08:21.264Z,24.41
2022-08-17T16:10:50.077Z,24.00
2022-08-17T16:13:18.520Z,23.61
2022-08-17T16:15:53.069Z,23.32
2022-08-17T16:18:26.414Z,22.94
2022-08-17T16:20:54.934Z,22.78
2022-08-17T16:23:24.850Z,22.97
2022-08-17T16:25:54.308Z,22.76
2022-08-17T16:28:35.655Z,22.72
2022-08-17T16:31:05.876Z,22.44
2022-08-17T16:33:36.830Z,22.54
2022-08-17T16:36:05.230Z,22.28
2022-08-17T16:38:35.735Z,22.21
2022-08-17T16:41:04.348Z,22.35
2022-08-17T16:43:32.272Z,22.55
2022-08-17T16:46:00.957Z,22.74
2022-08-17T16:48:29.722Z,22.59
2022-08-17T16:51:03.193Z,22.47
2022-08-17T16:53:32.661Z,22.29
2022-08-17T16:56:01.816Z,22.20
2022-08-17T16:58:30.100Z,22.30
2022-08-17T17:00:59.292Z,22.20
2022-08-17T17:03:29.116Z,22.15
2022-08-17T17:06:08.199Z,22.29
2022-08-17T17:08:44.123Z,22.36
2022-08-17T17:11:17.653Z,22.40
2022-08-17T17:13:52.782Z,22.39
2022-08-17T17:16:24.006Z,22.32
2022-08-17T17:19:04.666Z,22.31
2022-08-17T17:21:42.437Z,22.15
2022-08-17T17:24:16.049Z,22.17
2022-08-17T17:27:07.903Z,22.18
2022-08-17T17:29:49.647Z,22.09
2022-08-17T17:32:22.498Z,21.89
2022-08-17T17:34:56.052Z,21.99
2022-08-17T17:37:28.448Z,22.03
2022-08-17T17:40:00.906Z,21.92
2022-08-17T17:42:32.702Z,21.70
2022-08-17T17:45:10.635Z,21.55
2022-08-17T17:47:38.571Z,21.61
2022-08-17T17:50:08.540Z,21.49
2022-08-17T17:52:47.401Z,21.16
2022-08-17T17:55:39.502Z,21.32
2022-08-17T17:58:20.703Z,21.52
2022-08-17T18:00:56.433Z,21.59
2022-08-17T18:03:34.663Z,21.51
2022-08-17T18:06:15.048Z,21.19
2022-08-17T18:08:55.722Z,21.14
2022-08-17T18:11:43.339Z,21.52
2022-08-17T18:14:24.877Z,21.63
2022-08-17T18:16:56.544Z,21.84
2022-08-17T18:19:26.273Z,21.74
2022-08-17T18:21:56.987Z,21.69
2022-08-17T18:24:33.319Z,21.78
2022-08-17T18:27:08.333Z,21.43
2022-08-17T18:29:45.429Z,21.66
2022-08-17T18:32:29.874Z,21.74
2022-08-17T18:35:00.080Z,21.82
2022-08-17T18:37:37.090Z,21.90
2022-08-17T18:40:34.373Z,21.77
2022-08-17T18:43:25.274Z,21.82
2022-08-17T18:45:57.157Z,21.71
2022-08-17T18:48:33.048Z,21.46
2022-08-17T18:51:07.325Z,21.64
2022-08-17T18:53:38.318Z,21.53
2022-08-17T18:56:26.861Z,21.55
2022-08-17T18:59:03.223Z,21.48
2022-08-17T19:01:52.755Z,21.52
2022-08-17T19:04:38.007Z,21.56
2022-08-17T19:07:07.773Z,21.50
2022-08-17T19:09:39.422Z,21.66
2022-08-17T19:12:11.350Z,21.63
2022-08-17T19:14:39.610Z,21.55
2022-08-17T19:17:17.716Z,21.51
2022-08-17T19:19:53.940Z,21.49
2022-08-17T19:22:28.992Z,21.51
2022-08-17T19:25:08.490Z,21.61
2022-08-17T19:27:43.716Z,21.40
2022-08-17T19:30:16.302Z,21.46
2022-08-17T19:32:45.446Z,21.39
2022-08-17T19:35:17.551Z,21.25
2022-08-17T19:37:58.556Z,21.24
2022-08-17T19:40:52.431Z,21.36
2022-08-17T19:43:30.571Z,21.30
2022-08-17T19:46:08.571Z,21.18
2022-08-17T19:48:49.509Z,20.98
2022-08-17T19:51:25.260Z,20.80
2022-08-17T19:54:07.136Z,20.92
2022-08-17T19:56:44.962Z,20.97
2022-08-17T19:59:21.035Z,20.91
2022-08-17T20:01:54.030Z,20.90
2022-08-17T20:04:40.103Z,20.75
2022-08-17T20:07:12.250Z,20.81
2022-08-17T20:09:44.313Z,20.82
2022-08-17T20:12:17.405Z,20.74
2022-08-17T20:14:51.691Z,20.59
2022-08-17T20:17:24.879Z,20.93
2022-08-17T20:20:06.166Z,20.99
2022-08-17T20:22:51.868Z,21.13
2022-08-17T20:25:30.499Z,21.01
2022-08-17T20:28:06.818Z,20.91
2022-08-17T20:30:39.958Z,20.99
2022-08-17T20:33:22.452Z,21.16
2022-08-17T20:36:05.956Z,21.23
2022-08-17T20:38:41.678Z,21.09
2022-08-17T20:41:15.196Z,21.15
2022-08-17T20:44:02.473Z,21.10
2022-08-17T20:46:57.375Z,21.16
2022-08-17T20:49:32.834Z,21.13
2022-08-17T20:52:08.169Z,21.06
2022-08-17T20:54:49.722Z,21.03
2022-08-17T20:57:47.364Z,20.98
2022-08-17T21:00:42.552Z,20.94
2022-08-17T21:03:50.273Z,21.01
2022-08-17T21:06:23.971Z,20.86
2022-08-17T21:08:58.612Z,20.93
2022-08-17T21:12:01.475Z,20.95
2022-08-17T21:14:41.994Z,20.76
2022-08-17T21:17:29.604Z,20.83
2022-08-17T21:20:12.932Z,20.79
2022-08-17T21:22:57.631Z,20.80
2022-08-17T21:25:50.626Z,20.76
2022-08-17T21:28:29.966Z,20.68
2022-08-17T21:31:08.519Z,20.51
2022-08-17T21:33:38.896Z,20.66
2022-08-17T21:36:24.697Z,20.64
2022-08-17T21:39:12.369Z,20.49
2022-08-17T21:41:53.031Z,20.68
2022-08-17T21:44:30.522Z,20.65
2022-08-17T21:47:14.888Z,20.77
2022-08-17T21:49:43.538Z,20.74
2022-08-17T21:52:15.572Z,20.72
2022-08-17T21:54:51.057Z,20.68
2022-08-17T21:57:23.637Z,20.50
2022-08-17T21:59:54.838Z,20.68
2022-08-17T22:02:25.676Z,20.74
2022-08-17T22:04:59.233Z,20.58
2022-08-17T22:07:39.919Z,20.60
2022-08-17T22:10:27.282Z,20.46
2022-08-17T22:13:16.819Z,20.28
2022-08-17T22:15:48.078Z,20.16
2022-08-17T22:18:20.455Z,20.20
2022-08-17T22:20:51.587Z,20.46
2022-08-17T22:23:43.636Z,20.56
2022-08-17T22:26:15.568Z,20.61
2022-08-17T22:28:48.895Z,20.69
2022-08-17T22:31:18.991Z,20.67
2022-08-17T22:33:49.224Z,20.59
2022-08-17T22:36:28.904Z,20.64
2022-08-17T22:38:58.495Z,20.72
2022-08-17T22:41:34.458Z,20.72
2022-08-17T22:44:15.564Z,20.10
2022-08-17T22:46:52.926Z,20.54
2022-08-17T22:49:29.173Z,20.74
2022-08-17T22:52:29.089Z,20.79
2022-08-17T22:55:24.351Z,20.75
2022-08-17T22:58:10.321Z,20.92
2022-08-17T23:00:42.828Z,20.74
2022-08-17T23:03:17.747Z,20.59
2022-08-17T23:05:49.606Z,20.50
2022-08-17T23:08:21.275Z,20.72
2022-08-17T23:10:50.255Z,20.51
2022-08-17T23:13:18.063Z,20.79
2022-08-17T23:15:48.140Z,20.53
2022-08-17T23:18:17.574Z,20.63
2022-08-17T23:20:46.448Z,20.75
2022-08-17T23:23:15.596Z,20.88
2022-08-17T23:25:46.345Z,20.59
2022-08-17T23:28:14.464Z,20.54
2022-08-17T23:30:45.061Z,20.60
2022-08-17T23:33:20.093Z,20.57
2022-08-17T23:35:48.106Z,20.44
2022-08-17T23:38:15.932Z,20.33
2022-08-17T23:40:43.791Z,20.41
2022-08-17T23:43:23.665Z,20.58
2022-08-17T23:45:53.735Z,20.29
2022-08-17T23:48:32.695Z,20.34
2022-08-17T23:51:08.609Z,20.61
2022-08-17T23:53:38.890Z,20.40
2022-08-17T23:56:10.404Z,20.31
2022-08-17T23:58:39.461Z,20.41
